Time;durP1;ratioP1;P1;durP2;ratioP2;P2;SDS_P1;SDS_P2;PMS_P1;PMS_P2;Temp;Humidity;BMP_temperature;BMP_pressure;BME280_temperature;BME280_humidity;BME280_pressure;Samples;Min_cycle;Max_cycle;Signal;HPM_P1;HPM_P2
2021/07/06 00:00:07;;;;;;;;;;;;;;;;;;2137298;67;1162;-70
2021/07/06 00:02:32;;;;;;;;;;;;;;;;;;2139986;67;1250;-70
2021/07/06 00:05:00;;;;;;;;;;;;;;;;;;2138242;67;1279;-69
2021/07/06 00:07:26;;;;;;;;;;;;;;;;;;2139826;67;1304;-71
2021/07/06 00:09:51;;;;;;;;;;;;;;;;;;2139276;67;1924;-69
2021/07/06 00:12:16;;;;;;;;;;;;;;;;;;2139815;59;1303;-70
2021/07/06 00:14:42;;;;;;;;;;;;;;;;;;2139295;67;1328;-71
2021/07/06 00:17:07;;;;;;;;;;;;;;;;;;2139638;59;1583;-69
2021/07/06 00:19:32;;;;;;;;;;;;;;;;;;2138637;67;1184;-71
2021/07/06 00:21:58;;;;;;;;;;;;;;;;;;2139143;67;1170;-72
2021/07/06 00:24:23;;;;;;;;;;;;;;;;;;2138822;67;1274;-71
2021/07/06 00:26:48;;;;;;;;;;;;;;;;;;2138983;59;1207;-75
2021/07/06 00:29:13;;;;;;;;;;;;;;;;;;2138532;59;1972;-73
2021/07/06 00:31:38;;;;;;;;;;;;;;;;;;2136475;67;1729;-72
2021/07/06 00:34:04;;;;;;;;;;;;;;;;;;2138752;67;1307;-72
2021/07/06 00:36:29;;;;;;;;;;;;;;;;;;2137638;67;1253;-71
2021/07/06 00:38:54;;;;;;;;;;;;;;;;;;2139035;67;1180;-70
2021/07/06 00:41:19;;;;;;;;;;;;;;;;;;2139438;67;1230;-72
2021/07/06 00:43:44;;;;;;;;;;;;;;;;;;2138661;67;1100;-74
2021/07/06 00:46:10;;;;;;;;;;;;;;;;;;2139408;67;1218;-72
2021/07/06 00:48:35;;;;;;;;;;;;;;;;;;2139028;67;1284;-72
2021/07/06 00:51:00;;;;;;;;;;;;;;;;;;2140045;67;2003;-72
2021/07/06 00:53:25;;;;;;;;;;;;;;;;;;2139327;67;1283;-72
2021/07/06 00:55:53;;;;;;;;;;;;;;;;;;2138991;67;1223;-72
2021/07/06 00:58:18;;;;;;;;;;;;;;;;;;2139533;67;1260;-74
2021/07/06 01:00:44;;;;;;;;;;;;;;;;;;2137581;67;1153;-70
2021/07/06 01:03:10;;;;;;;;;;;;;;;;;;2140369;67;1164;-74
2021/07/06 01:05:36;;;;;;;;;;;;;;;;;;2138514;67;1206;-71
2021/07/06 01:08:01;;;;;;;;;;;;;;;;;;2137530;59;1425;-72
2021/07/06 01:10:26;;;;;;;;;;;;;;;;;;2138897;67;1915;-72
2021/07/06 01:12:52;;;;;;;;;;;;;;;;;;2138710;67;1188;-72
2021/07/06 01:15:27;;;;;;;;;;;;;;;;;;2139064;59;1280;-71
2021/07/06 01:17:58;;;;;;;;;;;;;;;;;;2138393;67;1136;-69
2021/07/06 01:20:24;;;;;;;;;;;;;;;;;;2139592;67;1285;-69
2021/07/06 01:22:49;;;;;;;;;;;;;;;;;;2139598;67;1061;-73
2021/07/06 01:25:14;;;;;;;;;;;;;;;;;;2139090;59;1270;-69
2021/07/06 01:27:40;;;;;;;;;;;;;;;;;;2139758;67;1145;-69
2021/07/06 01:30:08;;;;;;;;;;;;;;;;;;2138657;67;1917;-70
2021/07/06 01:32:33;;;;;;;;;;;;;;;;;;2138602;67;1212;-69
2021/07/06 01:34:58;;;;;;;;;;;;;;;;;;2140001;67;1176;-71
2021/07/06 01:37:24;;;;;;;;;;;;;;;;;;2139567;67;1204;-70
2021/07/06 01:39:49;;;;;;;;;;;;;;;;;;2139379;67;1172;-70
2021/07/06 01:42:15;;;;;;;;;;;;;;;;;;2139455;67;1168;-70
2021/07/06 01:44:41;;;;;;;;;;;;;;;;;;2139545;67;1150;-69
2021/07/06 01:47:06;;;;;;;;;;;;;;;;;;2138613;59;1382;-70
2021/07/06 01:49:33;;;;;;;;;;;;;;;;;;2139858;67;1921;-70
2021/07/06 01:51:58;;;;;;;;;;;;;;;;;;2139131;67;1096;-70
2021/07/06 01:54:23;;;;;;;;;;;;;;;;;;2139286;67;1132;-70
2021/07/06 01:56:48;;;;;;;;;;;;;;;;;;2139406;67;1190;-70
2021/07/06 01:59:14;;;;;;;;;;;;;;;;;;2139203;59;1142;-70
2021/07/06 02:01:41;;;;;;;;;;;;;;;;;;2139578;67;1453;-70
2021/07/06 02:04:06;;;;;;;;;;;;;;;;;;2138333;67;1322;-72
2021/07/06 02:06:32;;;;;;;;;;;;;;;;;;2138814;67;1171;-70
2021/07/06 02:08:58;;;;;;;;;;;;;;;;;;2139908;67;1973;-74
2021/07/06 02:11:23;;;;;;;;;;;;;;;;;;2139695;67;1610;-71
2021/07/06 02:13:48;;;;;;;;;;;;;;;;;;2139759;59;1325;-72
2021/07/06 02:16:14;;;;;;;;;;;;;;;;;;2139312;59;1406;-71
2021/07/06 02:18:39;;;;;;;;;;;;;;;;;;2139763;67;1252;-72
2021/07/06 02:21:04;;;;;;;;;;;;;;;;;;2139729;67;1166;-71
2021/07/06 02:23:31;;;;;;;;;;;;;;;;;;2139329;67;1184;-71
2021/07/06 02:25:59;;;;;;;;;;;;;;;;;;2139895;59;1259;-71
2021/07/06 02:28:25;;;;;;;;;;;;;;;;;;2135584;59;1372;-71
2021/07/06 02:30:50;;;;;;;;;;;;;;;;;;2144018;59;3158;-69
2021/07/06 02:33:16;;;;;;;;;;;;;;;;;;2140922;59;1134;-71
2021/07/06 02:35:41;;;;;;;;;;;;;;;;;;2142265;66;1219;-72
2021/07/06 02:38:06;;;;;;;;;;;;;;;;;;2143675;59;1210;-71
2021/07/06 02:40:32;;;;;;;;;;;;;;;;;;2142538;66;1227;-70
2021/07/06 02:42:57;;;;;;;;;;;;;;;;;;2143973;66;1199;-71
2021/07/06 02:45:23;;;;;;;;;;;;;;;;;;2143957;66;1176;-71
2021/07/06 02:47:48;;;;;;;;;;;;;;;;;;2140944;59;1262;-69
2021/07/06 02:50:14;;;;;;;;;;;;;;;;;;2141183;66;1924;-70
2021/07/06 02:52:40;;;;;;;;;;;;;;;;;;2143941;66;1176;-70
2021/07/06 02:55:06;;;;;;;;;;;;;;;;;;2142329;66;1183;-71
2021/07/06 02:57:38;;;;;;;;;;;;;;;;;;2144824;66;1212;-69
2021/07/06 03:00:06;;;;;;;;;;;;;;;;;;2143301;66;1301;-70
2021/07/06 03:02:31;;;;;;;;;;;;;;;;;;2142575;66;1227;-69
2021/07/06 03:04:56;;;;;;;;;;;;;;;;;;2142655;59;1373;-71
2021/07/06 03:07:21;;;;;;;;;;;;;;;;;;2142784;59;1453;-71
2021/07/06 03:09:47;;;;;;;;;;;;;;;;;;2142660;66;1920;-70
2021/07/06 03:12:12;;;;;;;;;;;;;;;;;;2142652;66;1219;-70
2021/07/06 03:14:37;;;;;;;;;;;;;;;;;;2141421;59;1406;-68
2021/07/06 03:17:02;;;;;;;;;;;;;;;;;;2140398;59;1546;-72
2021/07/06 03:19:27;;;;;;;;;;;;;;;;;;2142862;66;1184;-71
2021/07/06 03:21:53;;;;;;;;;;;;;;;;;;2142575;66;1321;-71
2021/07/06 03:24:18;;;;;;;;;;;;;;;;;;2142754;66;1195;-73
2021/07/06 03:26:43;;;;;;;;;;;;;;;;;;2142495;66;1146;-70
2021/07/06 03:29:08;;;;;;;;;;;;;;;;;;2140801;59;1969;-71
2021/07/06 03:31:33;;;;;;;;;;;;;;;;;;2141671;66;1123;-68
2021/07/06 03:33:58;;;;;;;;;;;;;;;;;;2140252;66;1378;-70
2021/07/06 03:36:24;;;;;;;;;;;;;;;;;;2143816;66;1164;-70
2021/07/06 03:38:49;;;;;;;;;;;;;;;;;;2141495;66;1128;-71
2021/07/06 03:41:14;;;;;;;;;;;;;;;;;;2143157;66;1188;-70
2021/07/06 03:43:39;;;;;;;;;;;;;;;;;;2141620;66;1161;-70
2021/07/06 03:46:04;;;;;;;;;;;;;;;;;;2143043;66;1156;-70
2021/07/06 03:48:29;;;;;;;;;;;;;;;;;;2142373;66;1235;-69
2021/07/06 03:50:55;;;;;;;;;;;;;;;;;;2142313;66;1987;-70
2021/07/06 03:53:20;;;;;;;;;;;;;;;;;;2143241;66;1055;-69
2021/07/06 03:55:45;;;;;;;;;;;;;;;;;;2142783;66;1299;-68
2021/07/06 03:58:10;;;;;;;;;;;;;;;;;;2142983;66;1169;-71
2021/07/06 04:00:35;;;;;;;;;;;;;;;;;;2141372;66;1195;-70
2021/07/06 04:03:00;;;;;;;;;;;;;;;;;;2141784;66;1073;-71
2021/07/06 04:05:26;;;;;;;;;;;;;;;;;;2141056;59;1215;-71
2021/07/06 04:07:52;;;;;;;;;;;;;;;;;;2142759;66;1398;-71
2021/07/06 04:10:17;;;;;;;;;;;;;;;;;;2141632;66;1969;-70
2021/07/06 04:12:43;;;;;;;;;;;;;;;;;;2143208;66;1155;-71
2021/07/06 04:15:10;;;;;;;;;;;;;;;;;;2138750;59;1336;-69
2021/07/06 04:17:35;;;;;;;;;;;;;;;;;;2141926;66;1231;-72
2021/07/06 04:20:01;;;;;;;;;;;;;;;;;;2142345;66;1229;-70
2021/07/06 04:22:26;;;;;;;;;;;;;;;;;;2142635;66;1225;-71
2021/07/06 04:24:51;;;;;;;;;;;;;;;;;;2142728;66;1128;-72
2021/07/06 04:27:17;;;;;;;;;;;;;;;;;;2142298;66;1081;-70
2021/07/06 04:29:42;;;;;;;;;;;;;;;;;;2142169;59;1974;-72
2021/07/06 04:32:07;;;;;;;;;;;;;;;;;;2140485;67;1052;-71
2021/07/06 04:34:32;;;;;;;;;;;;;;;;;;2141620;67;1061;-71
2021/07/06 04:36:58;;;;;;;;;;;;;;;;;;2142719;67;1162;-71
2021/07/06 04:39:23;;;;;;;;;;;;;;;;;;2142245;67;1443;-71
2021/07/06 04:41:48;;;;;;;;;;;;;;;;;;2142874;67;1163;-68
2021/07/06 04:44:13;;;;;;;;;;;;;;;;;;2140543;67;1112;-70
2021/07/06 04:46:39;;;;;;;;;;;;;;;;;;2143182;67;1219;-70
2021/07/06 04:49:04;;;;;;;;;;;;;;;;;;2140751;67;1949;-68
2021/07/06 04:51:30;;;;;;;;;;;;;;;;;;2142439;67;1147;-71
2021/07/06 04:53:55;;;;;;;;;;;;;;;;;;2142863;66;1158;-70
2021/07/06 04:56:22;;;;;;;;;;;;;;;;;;2142932;66;1174;-71
2021/07/06 04:58:47;;;;;;;;;;;;;;;;;;2142905;66;1223;-69
2021/07/06 05:01:12;;;;;;;;;;;;;;;;;;2137484;66;1232;-70
2021/07/06 05:03:38;;;;;;;;;;;;;;;;;;2141151;66;1042;-71
2021/07/06 05:06:03;;;;;;;;;;;;;;;;;;2143146;66;1184;-73
2021/07/06 05:08:29;;;;;;;;;;;;;;;;;;2137384;59;1867;-69
2021/07/06 05:10:56;;;;;;;;;;;;;;;;;;2141487;67;1919;-68
2021/07/06 05:13:24;;;;;;;;;;;;;;;;;;2142178;66;1207;-70
2021/07/06 05:15:49;;;;;;;;;;;;;;;;;;2140346;59;2406;-69
2021/07/06 05:18:14;;;;;;;;;;;;;;;;;;2142220;66;1253;-68
2021/07/06 05:20:40;;;;;;;;;;;;;;;;;;2142585;66;1224;-71
2021/07/06 05:23:05;;;;;;;;;;;;;;;;;;2142513;66;2058;-71
2021/07/06 05:25:30;;;;;;;;;;;;;;;;;;2141224;67;2229;-74
2021/07/06 05:27:55;;;;;;;;;;;;;;;;;;2142937;66;1253;-69
2021/07/06 05:30:20;;;;;;;;;;;;;;;;;;2141420;59;1936;-72
2021/07/06 05:32:46;;;;;;;;;;;;;;;;;;2141091;67;1342;-72
2021/07/06 05:35:11;;;;;;;;;;;;;;;;;;2142266;66;1336;-72
2021/07/06 05:37:37;;;;;;;;;;;;;;;;;;2143500;66;1166;-71
2021/07/06 05:40:06;;;;;;;;;;;;;;;;;;2142344;66;1276;-71
2021/07/06 05:42:33;;;;;;;;;;;;;;;;;;2142965;66;1991;-72
2021/07/06 05:44:58;;;;;;;;;;;;;;;;;;2136299;59;2022;-70
2021/07/06 05:47:23;;;;;;;;;;;;;;;;;;2142024;59;1296;-72
2021/07/06 05:49:49;;;;;;;;;;;;;;;;;;2141689;66;1934;-72
2021/07/06 05:52:14;;;;;;;;;;;;;;;;;;2142912;66;1282;-73
2021/07/06 05:54:39;;;;;;;;;;;;;;;;;;2142615;66;1164;-69
2021/07/06 05:57:04;;;;;;;;;;;;;;;;;;2143047;66;1211;-72
2021/07/06 05:59:29;;;;;;;;;;;;;;;;;;2142747;66;1236;-71
2021/07/06 06:01:55;;;;;;;;;;;;;;;;;;2142800;66;1205;-70
2021/07/06 06:04:20;;;;;;;;;;;;;;;;;;2142759;66;1399;-72
2021/07/06 06:06:46;;;;;;;;;;;;;;;;;;2142258;66;1233;-70
2021/07/06 06:09:11;;;;;;;;;;;;;;;;;;2142105;66;1925;-72
2021/07/06 06:11:37;;;;;;;;;;;;;;;;;;2138521;66;1080;-73
2021/07/06 06:14:02;;;;;;;;;;;;;;;;;;2141779;59;1262;-74
2021/07/06 06:16:27;;;;;;;;;;;;;;;;;;2141414;59;1150;-70
2021/07/06 06:18:55;;;;;;;;;;;;;;;;;;2143723;66;1307;-73
2021/07/06 06:21:21;;;;;;;;;;;;;;;;;;2144292;66;1199;-71
2021/07/06 06:23:46;;;;;;;;;;;;;;;;;;2142166;66;1856;-72
2021/07/06 06:26:12;;;;;;;;;;;;;;;;;;2140750;59;1757;-71
2021/07/06 06:28:40;;;;;;;;;;;;;;;;;;2140168;59;2269;-72
2021/07/06 06:31:05;;;;;;;;;;;;;;;;;;2140037;59;1984;-71
2021/07/06 06:33:30;;;;;;;;;;;;;;;;;;2139273;59;2163;-72
2021/07/06 06:35:55;;;;;;;;;;;;;;;;;;2140174;66;1792;-70
2021/07/06 06:38:21;;;;;;;;;;;;;;;;;;2139601;66;1532;-73
2021/07/06 06:40:46;;;;;;;;;;;;;;;;;;2138355;67;1172;-71
2021/07/06 06:43:11;;;;;;;;;;;;;;;;;;2137067;59;2022;-73
2021/07/06 06:45:36;;;;;;;;;;;;;;;;;;2135733;66;1353;-71
2021/07/06 06:48:01;;;;;;;;;;;;;;;;;;2139650;63;1893;-72
2021/07/06 06:50:26;;;;;;;;;;;;;;;;;;2140844;66;1919;-71
2021/07/06 06:52:52;;;;;;;;;;;;;;;;;;2139663;66;2340;-72
2021/07/06 06:55:17;;;;;;;;;;;;;;;;;;2140460;66;2261;-70
2021/07/06 06:57:43;;;;;;;;;;;;;;;;;;2136766;66;1480;-70
2021/07/06 07:00:09;;;;;;;;;;;;;;;;;;2139142;66;1219;-73
2021/07/06 07:02:34;;;;;;;;;;;;;;;;;;2140436;66;1936;-70
2021/07/06 07:04:59;;;;;;;;;;;;;;;;;;2140445;66;1408;-68
2021/07/06 07:07:24;;;;;;;;;;;;;;;;;;2139817;59;1354;-68
2021/07/06 07:09:50;;;;;;;;;;;;;;;;;;2140538;66;1919;-71
2021/07/06 07:12:16;;;;;;;;;;;;;;;;;;2140348;59;1236;-69
2021/07/06 07:14:41;;;;;;;;;;;;;;;;;;2141048;59;1954;-69
2021/07/06 07:17:07;;;;;;;;;;;;;;;;;;2141110;66;1589;-69
2021/07/06 07:19:32;;;;;;;;;;;;;;;;;;2140009;66;2073;-72
2021/07/06 07:21:57;;;;;;;;;;;;;;;;;;2140753;67;1394;-68
2021/07/06 07:24:23;;;;;;;;;;;;;;;;;;2139954;59;1930;-71
2021/07/06 07:26:48;;;;;;;;;;;;;;;;;;2141915;66;1669;-68
2021/07/06 07:29:13;;;;;;;;;;;;;;;;;;2141027;59;1930;-70
2021/07/06 07:31:39;;;;;;;;;;;;;;;;;;2139877;66;1896;-72
2021/07/06 07:34:04;;;;;;;;;;;;;;;;;;2140267;67;1689;-69
2021/07/06 07:36:29;;;;;;;;;;;;;;;;;;2137751;59;2366;-72
2021/07/06 07:38:55;;;;;;;;;;;;;;;;;;2140591;59;1498;-69
2021/07/06 07:41:21;;;;;;;;;;;;;;;;;;2140954;67;1635;-73
2021/07/06 07:43:49;;;;;;;;;;;;;;;;;;2140034;67;1438;-71
2021/07/06 07:46:14;;;;;;;;;;;;;;;;;;2139015;67;1561;-69
2021/07/06 07:48:39;;;;;;;;;;;;;;;;;;2142031;59;1410;-70
2021/07/06 07:51:04;;;;;;;;;;;;;;;;;;2140558;66;1979;-68
2021/07/06 07:53:30;;;;;;;;;;;;;;;;;;2139419;66;3110;-69
2021/07/06 07:55:55;;;;;;;;;;;;;;;;;;2139042;66;3643;-70
2021/07/06 07:58:20;;;;;;;;;;;;;;;;;;2140666;66;1545;-69
2021/07/06 08:00:45;;;;;;;;;;;;;;;;;;2140990;66;1575;-72
2021/07/06 08:03:11;;;;;;;;;;;;;;;;;;2142613;66;1583;-70
2021/07/06 08:05:36;;;;;;;;;;;;;;;;;;2141392;66;1386;-72
2021/07/06 08:08:01;;;;;;;;;;;;;;;;;;2140279;66;1635;-70
2021/07/06 08:10:27;;;;;;;;;;;;;;;;;;2139413;59;2258;-70
2021/07/06 08:12:52;;;;;;;;;;;;;;;;;;2140506;67;1751;-74
2021/07/06 08:15:17;;;;;;;;;;;;;;;;;;2139665;59;1823;-70
2021/07/06 08:17:43;;;;;;;;;;;;;;;;;;2138988;59;1878;-71
2021/07/06 08:20:09;;;;;;;;;;;;;;;;;;2137964;59;2007;-74
2021/07/06 08:22:34;;;;;;;;;;;;;;;;;;2140501;67;1581;-70
2021/07/06 08:25:00;;;;;;;;;;;;;;;;;;2139682;59;2178;-71
2021/07/06 08:27:25;;;;;;;;;;;;;;;;;;2139944;59;1943;-70
2021/07/06 08:29:50;;;;;;;;;;;;;;;;;;2140586;59;2256;-71
2021/07/06 08:32:15;;;;;;;;;;;;;;;;;;2141035;59;1732;-70
2021/07/06 08:34:40;;;;;;;;;;;;;;;;;;2140311;59;2055;-78
2021/07/06 08:37:06;;;;;;;;;;;;;;;;;;2141487;67;1848;-69
2021/07/06 08:39:31;;;;;;;;;;;;;;;;;;2141934;59;1611;-72
2021/07/06 08:41:57;;;;;;;;;;;;;;;;;;2141818;67;1086;-69
2021/07/06 08:44:22;;;;;;;;;;;;;;;;;;2139987;67;2454;-69
2021/07/06 08:46:49;;;;;;;;;;;;;;;;;;2142613;67;1285;-74
2021/07/06 08:49:15;;;;;;;;;;;;;;;;;;2141255;67;1922;-70
2021/07/06 08:51:42;;;;;;;;;;;;;;;;;;2139854;59;1847;-72
2021/07/06 08:54:07;;;;;;;;;;;;;;;;;;2139388;67;2576;-70
2021/07/06 08:56:32;;;;;;;;;;;;;;;;;;2139160;59;2522;-72
2021/07/06 08:58:57;;;;;;;;;;;;;;;;;;2140168;59;2014;-72
2021/07/06 09:01:28;;;;;;;;;;;;;;;;;;2140505;67;1150;-69
2021/07/06 09:04:01;;;;;;;;;;;;;;;;;;2135829;59;1957;-73
2021/07/06 09:06:27;;;;;;;;;;;;;;;;;;2140206;59;1698;-72
2021/07/06 09:09:12;;;;;;;;;;;;;;;;;;2140195;59;1259;-68
2021/07/06 09:11:46;;;;;;;;;;;;;;;;;;2142891;67;1604;-68
2021/07/06 09:14:12;;;;;;;;;;;;;;;;;;2140713;67;1390;-70
2021/07/06 09:16:37;;;;;;;;;;;;;;;;;;2139747;59;1315;-68
2021/07/06 09:19:15;;;;;;;;;;;;;;;;;;2141804;59;1721;-73
2021/07/06 09:21:40;;;;;;;;;;;;;;;;;;2140316;67;1147;-70
2021/07/06 09:24:05;;;;;;;;;;;;;;;;;;2139096;59;2374;-66
2021/07/06 09:26:32;;;;;;;;;;;;;;;;;;2140540;59;2122;-73
2021/07/06 09:28:59;;;;;;;;;;;;;;;;;;2140606;59;1601;-67
2021/07/06 09:31:42;;;;;;;;;;;;;;;;;;2140612;67;1937;-70
2021/07/06 09:34:11;;;;;;;;;;;;;;;;;;2140100;67;1263;-70
2021/07/06 09:36:41;;;;;;;;;;;;;;;;;;2140450;67;2377;-68
2021/07/06 09:39:11;;;;;;;;;;;;;;;;;;2140428;66;1369;-70
2021/07/06 09:41:38;;;;;;;;;;;;;;;;;;2140691;67;1399;-69
2021/07/06 09:44:24;;;;;;;;;;;;;;;;;;2141734;66;1787;-72
2021/07/06 09:46:49;;;;;;;;;;;;;;;;;;2141693;59;1459;-72
2021/07/06 09:49:16;;;;;;;;;;;;;;;;;;2141538;67;1921;-69
2021/07/06 09:51:42;;;;;;;;;;;;;;;;;;2142569;66;1422;-75
2021/07/06 09:54:07;;;;;;;;;;;;;;;;;;2144208;66;1381;-68
2021/07/06 09:56:39;;;;;;;;;;;;;;;;;;2140723;66;3491;-70
2021/07/06 09:59:05;;;;;;;;;;;;;;;;;;2140800;66;2322;-68
2021/07/06 10:01:30;;;;;;;;;;;;;;;;;;2140592;66;1900;-68
2021/07/06 10:03:57;;;;;;;;;;;;;;;;;;2139704;59;2251;-70
2021/07/06 10:06:23;;;;;;;;;;;;;;;;;;2140863;59;1898;-69
2021/07/06 10:08:49;;;;;;;;;;;;;;;;;;2140284;66;1616;-70
2021/07/06 10:11:14;;;;;;;;;;;;;;;;;;2141067;66;1988;-70
2021/07/06 10:13:40;;;;;;;;;;;;;;;;;;2141765;66;1048;-69
2021/07/06 10:16:05;;;;;;;;;;;;;;;;;;2137491;59;1386;-68
2021/07/06 10:18:32;;;;;;;;;;;;;;;;;;2141765;66;1217;-68
2021/07/06 10:20:57;;;;;;;;;;;;;;;;;;2141996;66;1189;-68
2021/07/06 10:23:24;;;;;;;;;;;;;;;;;;2142220;66;1020;-69
2021/07/06 10:25:53;;;;;;;;;;;;;;;;;;2142697;66;1150;-68
2021/07/06 10:28:19;;;;;;;;;;;;;;;;;;2142728;66;1027;-68
2021/07/06 10:30:46;;;;;;;;;;;;;;;;;;2140054;59;1982;-68
2021/07/06 10:33:30;;;;;;;;;;;;;;;;;;2140742;59;1266;-70
2021/07/06 10:35:55;;;;;;;;;;;;;;;;;;2142603;66;1171;-69
2021/07/06 10:38:30;;;;;;;;;;;;;;;;;;2142944;66;1172;-69
2021/07/06 10:40:55;;;;;;;;;;;;;;;;;;2142791;66;1193;-66
2021/07/06 10:43:31;;;;;;;;;;;;;;;;;;2142921;66;1097;-67
2021/07/06 10:46:12;;;;;;;;;;;;;;;;;;2143026;66;1153;-68
2021/07/06 10:48:42;;;;;;;;;;;;;;;;;;2141192;66;1324;-70
2021/07/06 10:51:07;;;;;;;;;;;;;;;;;;2142486;66;1921;-70
2021/07/06 10:53:32;;;;;;;;;;;;;;;;;;2142570;66;1160;-67
2021/07/06 10:56:06;;;;;;;;;;;;;;;;;;2143241;66;1231;-70
2021/07/06 10:58:48;;;;;;;;;;;;;;;;;;2142482;66;1160;-69
2021/07/06 11:01:32;;;;;;;;;;;;;;;;;;2142470;66;1208;-67
2021/07/06 11:03:57;;;;;;;;;;;;;;;;;;2140072;66;1157;-67
2021/07/06 11:06:46;;;;;;;;;;;;;;;;;;2143448;66;1151;-69
2021/07/06 11:09:11;;;;;;;;;;;;;;;;;;2140660;66;2190;-68
2021/07/06 11:11:37;;;;;;;;;;;;;;;;;;2143057;66;1179;-69
2021/07/06 11:14:21;;;;;;;;;;;;;;;;;;2142225;59;1317;-72
2021/07/06 11:16:59;;;;;;;;;;;;;;;;;;2142486;59;1163;-69
2021/07/06 11:19:37;;;;;;;;;;;;;;;;;;2141285;59;1301;-68
2021/07/06 11:22:16;;;;;;;;;;;;;;;;;;2142230;66;1790;-67
2021/07/06 11:24:42;;;;;;;;;;;;;;;;;;2142548;66;1268;-69
2021/07/06 11:27:08;;;;;;;;;;;;;;;;;;2142335;66;1169;-69
2021/07/06 11:29:34;;;;;;;;;;;;;;;;;;2141592;59;1925;-68
2021/07/06 11:32:18;;;;;;;;;;;;;;;;;;2140393;66;1219;-70
2021/07/06 11:34:44;;;;;;;;;;;;;;;;;;2142106;66;1080;-70
2021/07/06 11:37:11;;;;;;;;;;;;;;;;;;2141635;66;1177;-68
2021/07/06 11:39:36;;;;;;;;;;;;;;;;;;2142983;66;1254;-68
2021/07/06 11:42:02;;;;;;;;;;;;;;;;;;2141698;66;1158;-67
2021/07/06 11:44:28;;;;;;;;;;;;;;;;;;2143209;66;1200;-69
2021/07/06 11:47:05;;;;;;;;;;;;;;;;;;2141598;59;1228;-67
2021/07/06 11:49:31;;;;;;;;;;;;;;;;;;2141406;66;1981;-67
2021/07/06 11:51:58;;;;;;;;;;;;;;;;;;2142528;66;1169;-68
2021/07/06 11:54:24;;;;;;;;;;;;;;;;;;2139065;66;1397;-67
2021/07/06 11:56:49;;;;;;;;;;;;;;;;;;2142620;66;1167;-70
2021/07/06 11:59:14;;;;;;;;;;;;;;;;;;2142904;66;1229;-68
2021/07/06 12:01:39;;;;;;;;;;;;;;;;;;2139900;67;1257;-68
2021/07/06 12:04:04;;;;;;;;;;;;;;;;;;2141937;66;1323;-68
2021/07/06 12:06:31;;;;;;;;;;;;;;;;;;2142451;66;1235;-70
2021/07/06 12:09:00;;;;;;;;;;;;;;;;;;2141356;66;1255;-70
2021/07/06 12:11:26;;;;;;;;;;;;;;;;;;2142645;66;1929;-68
2021/07/06 12:13:55;;;;;;;;;;;;;;;;;;2142907;59;1224;-70
2021/07/06 12:16:20;;;;;;;;;;;;;;;;;;2143385;59;1268;-69
2021/07/06 12:18:53;;;;;;;;;;;;;;;;;;2143344;66;1253;-70
2021/07/06 12:21:27;;;;;;;;;;;;;;;;;;2142414;66;1277;-68
2021/07/06 12:23:53;;;;;;;;;;;;;;;;;;2142966;66;1164;-70
2021/07/06 12:26:19;;;;;;;;;;;;;;;;;;2142563;66;2152;-69
2021/07/06 12:28:44;;;;;;;;;;;;;;;;;;2142747;59;1287;-69
2021/07/06 12:31:13;;;;;;;;;;;;;;;;;;2141719;66;1983;-69
2021/07/06 12:33:39;;;;;;;;;;;;;;;;;;2140761;67;1404;-70
2021/07/06 12:36:04;;;;;;;;;;;;;;;;;;2142110;67;1056;-67
2021/07/06 12:38:29;;;;;;;;;;;;;;;;;;2142390;67;1212;-70
2021/07/06 12:40:54;;;;;;;;;;;;;;;;;;2142426;67;1153;-69
2021/07/06 12:43:21;;;;;;;;;;;;;;;;;;2142542;67;1227;-68
2021/07/06 12:45:46;;;;;;;;;;;;;;;;;;2142225;67;1204;-69
2021/07/06 12:48:23;;;;;;;;;;;;;;;;;;2140934;59;1432;-68
2021/07/06 12:50:48;;;;;;;;;;;;;;;;;;2140323;67;1922;-68
2021/07/06 12:53:13;;;;;;;;;;;;;;;;;;2137377;67;1181;-68
2021/07/06 12:55:39;;;;;;;;;;;;;;;;;;2142903;67;1255;-69
2021/07/06 12:58:08;;;;;;;;;;;;;;;;;;2141796;67;1238;-68
2021/07/06 13:00:34;;;;;;;;;;;;;;;;;;2141346;66;1237;-68
2021/07/06 13:03:04;;;;;;;;;;;;;;;;;;2141847;67;1247;-68
2021/07/06 13:05:31;;;;;;;;;;;;;;;;;;2142653;67;1131;-68
2021/07/06 13:07:57;;;;;;;;;;;;;;;;;;2141500;59;1326;-68
2021/07/06 13:10:27;;;;;;;;;;;;;;;;;;2142978;67;1913;-67
2021/07/06 13:13:00;;;;;;;;;;;;;;;;;;2142348;66;1204;-70
2021/07/06 13:15:27;;;;;;;;;;;;;;;;;;2140791;59;1224;-69
2021/07/06 13:17:52;;;;;;;;;;;;;;;;;;2143441;66;1231;-68
2021/07/06 13:20:19;;;;;;;;;;;;;;;;;;2143738;66;1226;-68
2021/07/06 13:22:44;;;;;;;;;;;;;;;;;;2143462;66;1183;-67
2021/07/06 13:25:10;;;;;;;;;;;;;;;;;;2143363;66;1250;-67
2021/07/06 13:27:35;;;;;;;;;;;;;;;;;;2143259;66;1243;-68
2021/07/06 13:30:02;;;;;;;;;;;;;;;;;;2142444;59;1979;-68
2021/07/06 13:32:28;;;;;;;;;;;;;;;;;;2139208;66;1195;-69
2021/07/06 13:34:53;;;;;;;;;;;;;;;;;;2142163;66;999;-71
2021/07/06 13:37:19;;;;;;;;;;;;;;;;;;2143293;66;1271;-68
2021/07/06 13:39:44;;;;;;;;;;;;;;;;;;2141622;66;1216;-69
2021/07/06 13:42:09;;;;;;;;;;;;;;;;;;2142758;59;1236;-70
2021/07/06 13:44:37;;;;;;;;;;;;;;;;;;2142958;66;1220;-68
2021/07/06 13:47:02;;;;;;;;;;;;;;;;;;2142510;59;1284;-68
2021/07/06 13:49:27;;;;;;;;;;;;;;;;;;2142724;66;1908;-70
2021/07/06 13:51:58;;;;;;;;;;;;;;;;;;2143569;66;1160;-69
2021/07/06 13:54:24;;;;;;;;;;;;;;;;;;2143292;66;1174;-68
2021/07/06 13:56:49;;;;;;;;;;;;;;;;;;2143511;66;1191;-69
2021/07/06 13:59:15;;;;;;;;;;;;;;;;;;2142271;66;1159;-67
2021/07/06 14:01:40;;;;;;;;;;;;;;;;;;2142769;66;1353;-70
2021/07/06 14:04:05;;;;;;;;;;;;;;;;;;2140655;59;1355;-69
2021/07/06 14:06:31;;;;;;;;;;;;;;;;;;2142955;66;1132;-68
2021/07/06 14:08:56;;;;;;;;;;;;;;;;;;2141381;66;1318;-67
2021/07/06 14:11:21;;;;;;;;;;;;;;;;;;2142760;66;1923;-67
2021/07/06 14:13:46;;;;;;;;;;;;;;;;;;2141981;59;1322;-69
2021/07/06 14:16:11;;;;;;;;;;;;;;;;;;2143224;59;1302;-68
2021/07/06 14:18:36;;;;;;;;;;;;;;;;;;2142210;66;1332;-70
2021/07/06 14:21:02;;;;;;;;;;;;;;;;;;2143353;66;1230;-68
2021/07/06 14:23:27;;;;;;;;;;;;;;;;;;2142498;66;1160;-68
2021/07/06 14:25:52;;;;;;;;;;;;;;;;;;2143138;66;1230;-66
2021/07/06 14:28:17;;;;;;;;;;;;;;;;;;2142938;66;1163;-66
2021/07/06 14:30:43;;;;;;;;;;;;;;;;;;2144004;53;2588;-69
2021/07/06 14:33:09;;;;;;;;;;;;;;;;;;2137988;59;1437;-71
2021/07/06 14:35:34;;;;;;;;;;;;;;;;;;2139338;59;1420;-72
2021/07/06 14:38:00;;;;;;;;;;;;;;;;;;2139563;59;1228;-71
2021/07/06 14:40:25;;;;;;;;;;;;;;;;;;2139449;67;1325;-70
2021/07/06 14:42:50;;;;;;;;;;;;;;;;;;2139139;67;1258;-70
2021/07/06 14:45:16;;;;;;;;;;;;;;;;;;2138912;67;1251;-69
2021/07/06 14:47:41;;;;;;;;;;;;;;;;;;2137920;59;1194;-71
2021/07/06 14:50:06;;;;;;;;;;;;;;;;;;2138699;67;1920;-71
2021/07/06 14:52:31;;;;;;;;;;;;;;;;;;2139391;67;1167;-71
2021/07/06 14:54:57;;;;;;;;;;;;;;;;;;2140132;67;1306;-71
2021/07/06 14:57:26;;;;;;;;;;;;;;;;;;2139388;67;1160;-70
2021/07/06 14:59:51;;;;;;;;;;;;;;;;;;2140530;67;1264;-70
2021/07/06 15:02:16;;;;;;;;;;;;;;;;;;2139557;67;1222;-71
2021/07/06 15:04:42;;;;;;;;;;;;;;;;;;2138896;59;2068;-71
2021/07/06 15:07:07;;;;;;;;;;;;;;;;;;2139179;67;2003;-71
2021/07/06 15:09:33;;;;;;;;;;;;;;;;;;2138926;67;1912;-71
2021/07/06 15:11:58;;;;;;;;;;;;;;;;;;2139517;67;1272;-71
2021/07/06 15:14:23;;;;;;;;;;;;;;;;;;2138874;59;1174;-71
2021/07/06 15:16:49;;;;;;;;;;;;;;;;;;2139563;59;1298;-67
2021/07/06 15:19:14;;;;;;;;;;;;;;;;;;2139287;67;1176;-67
2021/07/06 15:21:39;;;;;;;;;;;;;;;;;;2139375;67;1180;-69
2021/07/06 15:24:06;;;;;;;;;;;;;;;;;;2138803;59;1248;-71
2021/07/06 15:26:31;;;;;;;;;;;;;;;;;;2139192;67;1217;-71
2021/07/06 15:28:56;;;;;;;;;;;;;;;;;;2138573;67;1286;-71
2021/07/06 15:31:22;;;;;;;;;;;;;;;;;;2137561;59;1936;-72
2021/07/06 15:33:47;;;;;;;;;;;;;;;;;;2138179;67;1670;-71
2021/07/06 15:36:12;;;;;;;;;;;;;;;;;;2139135;67;1146;-70
2021/07/06 15:38:37;;;;;;;;;;;;;;;;;;2135651;67;1252;-70
2021/07/06 15:41:04;;;;;;;;;;;;;;;;;;2139474;67;1346;-71
2021/07/06 15:43:29;;;;;;;;;;;;;;;;;;2139361;67;1243;-72
2021/07/06 15:45:54;;;;;;;;;;;;;;;;;;2139665;67;1145;-72
2021/07/06 15:48:20;;;;;;;;;;;;;;;;;;2138885;59;1300;-71
2021/07/06 15:50:45;;;;;;;;;;;;;;;;;;2138299;67;1978;-72
2021/07/06 15:53:10;;;;;;;;;;;;;;;;;;2139596;67;1180;-71
2021/07/06 15:55:35;;;;;;;;;;;;;;;;;;2138362;67;1147;-72
2021/07/06 15:58:01;;;;;;;;;;;;;;;;;;2139422;67;1157;-71
2021/07/06 16:00:26;;;;;;;;;;;;;;;;;;2139823;67;1183;-72
2021/07/06 16:02:51;;;;;;;;;;;;;;;;;;2138658;59;1121;-72
2021/07/06 16:05:17;;;;;;;;;;;;;;;;;;2139397;59;1208;-69
2021/07/06 16:07:43;;;;;;;;;;;;;;;;;;2135251;67;1236;-72
2021/07/06 16:10:09;;;;;;;;;;;;;;;;;;2138161;67;1935;-70
2021/07/06 16:12:34;;;;;;;;;;;;;;;;;;2140127;67;1266;-71
2021/07/06 16:14:59;;;;;;;;;;;;;;;;;;2138974;59;1217;-72
2021/07/06 16:17:25;;;;;;;;;;;;;;;;;;2135469;67;1118;-71
2021/07/06 16:19:50;;;;;;;;;;;;;;;;;;2139134;67;1855;-72
2021/07/06 16:22:15;;;;;;;;;;;;;;;;;;2138994;67;1178;-72
2021/07/06 16:24:49;;;;;;;;;;;;;;;;;;2139240;67;1149;-71
2021/07/06 16:27:14;;;;;;;;;;;;;;;;;;2138903;67;1070;-72
2021/07/06 16:29:39;;;;;;;;;;;;;;;;;;2140045;59;1936;-72
2021/07/06 16:32:05;;;;;;;;;;;;;;;;;;2137660;59;4668;-72
2021/07/06 16:34:30;;;;;;;;;;;;;;;;;;2138426;67;1685;-72
2021/07/06 16:36:55;;;;;;;;;;;;;;;;;;2138411;67;1172;-71
2021/07/06 16:39:20;;;;;;;;;;;;;;;;;;2139747;67;1292;-72
2021/07/06 16:41:46;;;;;;;;;;;;;;;;;;2138444;67;1238;-72
2021/07/06 16:44:11;;;;;;;;;;;;;;;;;;2139329;67;1145;-73
2021/07/06 16:46:36;;;;;;;;;;;;;;;;;;2138689;67;1117;-73
2021/07/06 16:49:02;;;;;;;;;;;;;;;;;;2138326;67;1453;-71
2021/07/06 16:54:41;;;;;;;;;;;;;;;;;;;;;
2021/07/06 17:58:12;;;;;;;;;;;;;;;;;;2103348;68;1145;-72
2021/07/06 18:00:38;;;;;;;;;;;;;;;;;;2112448;67;1234;-72